createdAt,value
2023-03-13T00:01:37.792Z,84.79
2023-03-13T00:03:59.360Z,84.78
2023-03-13T00:06:21.880Z,85.11
2023-03-13T00:08:44.903Z,83.96
2023-03-13T00:11:08.374Z,84.43
2023-03-13T00:13:29.825Z,84.58
2023-03-13T00:15:59.879Z,83.06
2023-03-13T00:18:21.315Z,84.07
2023-03-13T00:20:42.757Z,83.84
2023-03-13T00:23:04.213Z,82.92
2023-03-13T00:25:25.671Z,82.31
2023-03-13T00:27:47.692Z,82.10
2023-03-13T00:30:09.736Z,81.38
2023-03-13T00:32:31.434Z,81.33
2023-03-13T00:34:52.905Z,82.88
2023-03-13T00:37:14.642Z,82.68
2023-03-13T00:39:36.053Z,83.05
2023-03-13T00:41:57.471Z,83.13
2023-03-13T00:44:18.939Z,83.56
2023-03-13T00:46:40.434Z,84.22
2023-03-13T00:49:02.180Z,83.90
2023-03-13T00:51:26.774Z,84.56
2023-03-13T00:53:48.713Z,84.54
2023-03-13T00:56:15.075Z,86.05
2023-03-13T00:58:39.181Z,86.26
2023-03-13T01:01:20.014Z,87.40
2023-03-13T01:03:44.021Z,87.98
2023-03-13T01:06:09.219Z,87.95
2023-03-13T01:08:31.357Z,88.30
2023-03-13T01:11:08.506Z,88.67
2023-03-13T01:13:32.955Z,88.80
2023-03-13T01:15:54.526Z,89.06
2023-03-13T01:18:16.029Z,89.55
2023-03-13T01:20:38.547Z,89.31
2023-03-13T01:23:00.048Z,88.63
2023-03-13T01:25:21.480Z,89.07
2023-03-13T01:27:42.937Z,89.78
2023-03-13T01:30:04.888Z,89.88
2023-03-13T01:32:26.483Z,89.83
2023-03-13T01:34:48.085Z,90.20
2023-03-13T01:37:09.540Z,90.06
2023-03-13T01:39:30.997Z,89.21
2023-03-13T01:41:52.426Z,89.29
2023-03-13T01:44:25.544Z,89.14
2023-03-13T01:46:47.027Z,89.78
2023-03-13T01:49:20.902Z,89.78
2023-03-13T01:51:55.688Z,89.28
2023-03-13T01:54:23.606Z,89.67
2023-03-13T01:57:02.127Z,89.71
2023-03-13T01:59:30.363Z,89.73
2023-03-13T02:01:55.579Z,90.16
2023-03-13T02:04:20.503Z,90.65
2023-03-13T02:06:47.101Z,90.77
2023-03-13T02:09:14.658Z,90.79
2023-03-13T02:12:01.079Z,90.62
2023-03-13T02:14:26.851Z,90.48
2023-03-13T02:16:52.004Z,90.24
2023-03-13T02:19:27.696Z,90.50
2023-03-13T02:21:57.962Z,90.36
2023-03-13T02:24:35.914Z,90.08
2023-03-13T02:26:57.484Z,90.08
2023-03-13T02:29:18.991Z,90.00
2023-03-13T02:31:40.546Z,90.23
2023-03-13T02:34:03.199Z,89.37
2023-03-13T02:36:24.667Z,88.92
2023-03-13T02:38:55.262Z,88.82
2023-03-13T02:41:18.139Z,89.63
2023-03-13T02:43:39.611Z,89.57
2023-03-13T02:46:13.307Z,88.95
2023-03-13T02:48:57.470Z,90.01
2023-03-13T02:51:41.866Z,89.87
2023-03-13T02:54:08.788Z,89.95
2023-03-13T02:56:33.640Z,89.93
2023-03-13T02:58:55.087Z,90.17
2023-03-13T03:01:16.746Z,90.39
2023-03-13T03:03:38.257Z,90.36
2023-03-13T03:05:59.729Z,90.03
2023-03-13T03:08:21.186Z,90.26
2023-03-13T03:10:42.603Z,90.60
2023-03-13T03:13:04.548Z,89.82
2023-03-13T03:15:25.983Z,89.73
2023-03-13T03:17:47.463Z,88.60
2023-03-13T03:20:11.997Z,89.21
2023-03-13T03:22:34.650Z,88.45
2023-03-13T03:24:56.113Z,87.80
2023-03-13T03:27:17.797Z,88.67
2023-03-13T03:29:39.254Z,88.03
2023-03-13T03:32:00.824Z,88.56
2023-03-13T03:34:22.443Z,88.20
2023-03-13T03:36:43.858Z,88.67
2023-03-13T03:39:05.407Z,88.68
2023-03-13T03:41:26.881Z,88.59
2023-03-13T03:43:49.268Z,89.13
2023-03-13T03:46:10.934Z,87.95
2023-03-13T03:48:32.628Z,87.79
2023-03-13T03:50:54.245Z,88.37
2023-03-13T03:53:15.690Z,89.43
2023-03-13T03:55:37.154Z,88.40
2023-03-13T03:57:58.626Z,89.59
2023-03-13T04:00:20.228Z,90.49
2023-03-13T04:02:42.016Z,90.16
2023-03-13T04:05:04.598Z,91.44
2023-03-13T04:07:26.380Z,91.70
2023-03-13T04:09:47.818Z,92.74
2023-03-13T04:12:09.460Z,91.70
2023-03-13T04:14:30.959Z,92.72
2023-03-13T04:16:52.529Z,93.96
2023-03-13T04:19:14.088Z,94.47
2023-03-13T04:21:35.534Z,93.90
2023-03-13T04:23:57.022Z,91.72
2023-03-13T04:26:18.522Z,91.86
2023-03-13T04:28:40.017Z,92.43
2023-03-13T04:31:01.542Z,92.29
2023-03-13T04:33:26.032Z,93.03
2023-03-13T04:35:47.629Z,91.50
2023-03-13T04:38:09.173Z,93.69
2023-03-13T04:40:30.603Z,94.99
2023-03-13T04:42:52.049Z,94.02
2023-03-13T04:45:13.541Z,95.83
2023-03-13T04:47:34.987Z,97.50
2023-03-13T04:49:56.419Z,98.89
2023-03-13T04:52:17.959Z,98.56
2023-03-13T04:54:39.416Z,98.50
2023-03-13T04:57:00.829Z,98.72
2023-03-13T04:59:22.359Z,99.14
2023-03-13T05:01:44.180Z,97.96
2023-03-13T05:04:06.155Z,99.41
2023-03-13T05:06:27.653Z,100.00
2023-03-13T05:08:49.103Z,98.35
2023-03-13T05:11:10.825Z,98.70
2023-03-13T05:13:32.426Z,96.41
2023-03-13T05:15:53.962Z,99.87
2023-03-13T05:18:15.537Z,100.00
2023-03-13T05:20:36.999Z,100.00
2023-03-13T05:22:58.514Z,100.00
2023-03-13T05:25:19.995Z,100.00
2023-03-13T05:27:41.535Z,100.00
2023-03-13T05:30:03.064Z,100.00
2023-03-13T05:32:24.641Z,100.00
2023-03-13T05:34:46.096Z,100.00
2023-03-13T05:37:07.532Z,100.00
2023-03-13T05:39:29.033Z,100.00
2023-03-13T05:41:50.499Z,100.00
2023-03-13T05:44:12.006Z,100.00
2023-03-13T05:46:34.027Z,100.00
2023-03-13T05:48:55.533Z,100.00
2023-03-13T05:51:16.977Z,100.00
2023-03-13T05:53:38.576Z,100.00
2023-03-13T05:56:00.103Z,100.00
2023-03-13T05:58:21.591Z,100.00
2023-03-13T06:00:43.799Z,100.00
2023-03-13T06:03:05.293Z,100.00
2023-03-13T06:05:26.706Z,100.00
2023-03-13T06:07:50.239Z,100.00
2023-03-13T06:10:12.330Z,100.00
2023-03-13T06:12:33.871Z,100.00
2023-03-13T06:14:55.440Z,100.00
2023-03-13T06:17:17.036Z,100.00
2023-03-13T06:19:38.487Z,100.00
2023-03-13T06:21:59.953Z,100.00
2023-03-13T06:24:21.396Z,100.00
2023-03-13T06:26:43.040Z,100.00
2023-03-13T06:29:04.543Z,100.00
2023-03-13T06:31:26.117Z,100.00
2023-03-13T06:33:49.633Z,100.00
2023-03-13T06:36:12.263Z,100.00
2023-03-13T06:38:34.009Z,100.00
2023-03-13T06:40:56.128Z,100.00
2023-03-13T06:43:17.616Z,100.00
2023-03-13T06:45:39.025Z,100.00
2023-03-13T06:48:00.472Z,100.00
2023-03-13T06:50:22.003Z,100.00
2023-03-13T06:52:44.396Z,100.00
2023-03-13T06:55:06.296Z,100.00
2023-03-13T06:57:27.787Z,100.00
2023-03-13T06:59:49.282Z,100.00
2023-03-13T07:02:14.611Z,100.00
2023-03-13T07:04:36.068Z,100.00
2023-03-13T07:06:57.528Z,100.00
2023-03-13T07:09:20.130Z,100.00
2023-03-13T07:11:41.571Z,100.00
2023-03-13T07:14:15.771Z,100.00
2023-03-13T07:16:38.306Z,100.00
2023-03-13T07:18:59.823Z,100.00
2023-03-13T07:21:21.281Z,100.00
2023-03-13T07:23:42.758Z,100.00
2023-03-13T07:26:07.996Z,100.00
2023-03-13T07:28:31.622Z,100.00
2023-03-13T07:30:53.908Z,100.00
2023-03-13T07:33:16.266Z,100.00
2023-03-13T07:35:39.592Z,100.00
2023-03-13T07:38:01.777Z,100.00
2023-03-13T07:40:23.206Z,100.00
2023-03-13T07:42:44.729Z,100.00
2023-03-13T07:45:06.632Z,100.00
2023-03-13T07:47:28.447Z,100.00
2023-03-13T07:49:49.975Z,100.00
2023-03-13T07:52:11.678Z,100.00
2023-03-13T07:54:33.207Z,100.00
2023-03-13T07:56:54.613Z,100.00
2023-03-13T07:59:16.073Z,100.00
2023-03-13T08:01:37.576Z,100.00
2023-03-13T08:04:02.326Z,100.00
2023-03-13T08:06:25.422Z,100.00
2023-03-13T08:08:47.596Z,100.00
2023-03-13T08:11:12.867Z,100.00
2023-03-13T08:13:36.430Z,100.00
2023-03-13T08:16:22.041Z,100.00
2023-03-13T08:18:46.437Z,100.00
2023-03-13T08:21:11.229Z,100.00
2023-03-13T08:23:33.315Z,100.00
2023-03-13T08:25:54.746Z,100.00
2023-03-13T08:28:16.234Z,100.00
2023-03-13T08:30:37.842Z,100.00
2023-03-13T08:32:59.406Z,100.00
2023-03-13T08:35:20.983Z,100.00
2023-03-13T08:37:42.486Z,100.00
2023-03-13T08:40:10.162Z,100.00
2023-03-13T08:42:31.628Z,100.00
2023-03-13T08:44:53.065Z,100.00
2023-03-13T08:47:14.872Z,100.00
2023-03-13T08:49:36.431Z,100.00
2023-03-13T08:51:57.945Z,100.00
2023-03-13T08:54:19.411Z,100.00
2023-03-13T08:56:41.667Z,100.00
2023-03-13T08:59:05.313Z,100.00
2023-03-13T09:01:30.737Z,100.00
2023-03-13T09:03:52.757Z,100.00
2023-03-13T09:06:14.384Z,100.00
2023-03-13T09:08:36.626Z,100.00
2023-03-13T09:11:06.992Z,100.00
2023-03-13T09:13:30.792Z,100.00
2023-03-13T09:16:04.306Z,100.00
2023-03-13T09:18:26.761Z,100.00
2023-03-13T09:20:49.113Z,100.00
2023-03-13T09:23:10.589Z,100.00
2023-03-13T09:25:32.037Z,100.00
2023-03-13T09:27:53.475Z,100.00
2023-03-13T09:30:15.103Z,100.00
2023-03-13T09:32:36.649Z,100.00
2023-03-13T09:34:58.223Z,100.00
2023-03-13T09:37:19.643Z,100.00
2023-03-13T09:39:41.320Z,100.00
2023-03-13T09:42:13.074Z,100.00
2023-03-13T09:44:48.157Z,100.00
2023-03-13T09:47:26.265Z,100.00
2023-03-13T09:49:57.067Z,100.00
2023-03-13T09:52:23.881Z,100.00
2023-03-13T09:54:48.042Z,100.00
2023-03-13T09:57:25.197Z,98.44
2023-03-13T09:59:57.812Z,98.53
2023-03-13T10:02:28.751Z,98.84
2023-03-13T10:04:58.125Z,97.27
2023-03-13T10:07:21.274Z,96.96
2023-03-13T10:09:43.244Z,96.94
2023-03-13T10:12:20.705Z,96.16
2023-03-13T10:14:58.716Z,96.59
2023-03-13T10:17:39.001Z,94.30
2023-03-13T10:20:22.316Z,93.87
2023-03-13T10:22:49.120Z,92.70
2023-03-13T10:25:32.789Z,92.16
2023-03-13T10:27:55.188Z,88.83
2023-03-13T10:30:24.922Z,89.39
2023-03-13T10:32:46.444Z,86.79
2023-03-13T10:35:10.872Z,86.47
2023-03-13T10:37:42.283Z,86.14
2023-03-13T10:40:19.793Z,87.53
2023-03-13T10:42:45.883Z,88.21
2023-03-13T10:45:07.801Z,88.44
2023-03-13T10:47:34.505Z,88.16
2023-03-13T10:49:57.767Z,87.35
2023-03-13T10:52:33.296Z,87.72
2023-03-13T10:55:00.363Z,89.61
2023-03-13T10:57:24.954Z,90.69
2023-03-13T10:59:49.305Z,89.92
2023-03-13T11:02:24.264Z,91.21
2023-03-13T11:04:49.401Z,91.87
2023-03-13T11:07:30.784Z,91.89
2023-03-13T11:10:19.173Z,93.22
2023-03-13T11:12:46.199Z,92.68
2023-03-13T11:15:15.566Z,92.53
2023-03-13T11:17:40.578Z,92.36
2023-03-13T11:20:22.941Z,91.76
2023-03-13T11:23:10.424Z,92.14
2023-03-13T11:26:01.938Z,91.51
2023-03-13T11:28:46.507Z,91.50
2023-03-13T11:31:28.423Z,90.91
2023-03-13T11:34:19.303Z,91.17
2023-03-13T11:36:46.227Z,91.67
2023-03-13T11:39:38.715Z,90.63
2023-03-13T11:42:27.297Z,89.72
2023-03-13T11:44:57.143Z,89.57
2023-03-13T11:47:37.637Z,89.07
2023-03-13T11:50:04.936Z,89.04
2023-03-13T11:52:38.200Z,88.32
2023-03-13T11:55:20.785Z,86.95
2023-03-13T11:57:59.589Z,85.29
2023-03-13T12:00:31.287Z,87.49
2023-03-13T12:03:05.003Z,88.40
2023-03-13T12:05:28.834Z,87.48
2023-03-13T12:07:56.509Z,87.63
2023-03-13T12:10:26.346Z,87.48
2023-03-13T12:13:01.685Z,87.09
2023-03-13T12:15:29.910Z,87.43
2023-03-13T12:18:01.117Z,85.79
2023-03-13T12:20:50.140Z,85.82
2023-03-13T12:23:20.733Z,85.66
2023-03-13T12:25:51.915Z,85.43
2023-03-13T12:28:36.406Z,85.40
2023-03-13T12:31:00.767Z,85.17
2023-03-13T12:33:38.007Z,85.54
2023-03-13T12:36:29.286Z,85.91
2023-03-13T12:39:04.932Z,85.50
2023-03-13T12:41:33.081Z,85.34
2023-03-13T12:44:07.611Z,85.81
2023-03-13T12:46:52.712Z,86.95
2023-03-13T12:49:32.651Z,87.80
2023-03-13T12:52:22.501Z,87.06
2023-03-13T12:55:17.932Z,88.61
2023-03-13T12:58:07.530Z,87.77
2023-03-13T13:00:31.672Z,87.84
2023-03-13T13:03:06.632Z,86.91
2023-03-13T13:05:28.259Z,86.60
2023-03-13T13:07:55.030Z,85.80
2023-03-13T13:10:22.628Z,84.84
2023-03-13T13:13:04.066Z,83.39
2023-03-13T13:15:27.813Z,84.64
2023-03-13T13:18:27.392Z,83.17
2023-03-13T13:21:09.592Z,83.45
2023-03-13T13:23:41.974Z,82.25
2023-03-13T13:26:33.724Z,82.98
2023-03-13T13:29:01.352Z,84.22
2023-03-13T13:31:44.782Z,85.94
2023-03-13T13:34:06.366Z,84.76
2023-03-13T13:36:29.846Z,84.43
2023-03-13T13:38:51.754Z,83.84
2023-03-13T13:41:13.106Z,84.62
2023-03-13T13:43:40.084Z,85.62
2023-03-13T13:46:10.625Z,87.09
2023-03-13T13:48:35.792Z,86.79
2023-03-13T13:51:14.067Z,86.86
2023-03-13T13:53:48.229Z,86.63
2023-03-13T13:56:29.811Z,85.96
2023-03-13T13:58:57.594Z,87.07
2023-03-13T14:01:19.415Z,87.99
2023-03-13T14:03:43.730Z,87.32
2023-03-13T14:06:21.664Z,87.08
2023-03-13T14:08:45.828Z,86.85
2023-03-13T14:11:22.402Z,86.43
2023-03-13T14:13:44.070Z,86.64
2023-03-13T14:16:25.034Z,87.06
2023-03-13T14:18:46.844Z,87.49
2023-03-13T14:21:14.038Z,86.77
2023-03-13T14:23:42.786Z,85.73
2023-03-13T14:26:19.541Z,85.05
2023-03-13T14:28:43.345Z,87.22
2023-03-13T14:31:05.048Z,87.49
2023-03-13T14:33:27.794Z,88.43
2023-03-13T14:35:49.864Z,89.27
2023-03-13T14:38:17.898Z,88.42
2023-03-13T14:40:39.539Z,88.49
2023-03-13T14:43:02.784Z,88.29
2023-03-13T14:45:32.592Z,88.16
2023-03-13T14:47:54.771Z,89.25
2023-03-13T14:50:18.228Z,88.93
2023-03-13T14:52:49.687Z,88.91
2023-03-13T14:55:23.154Z,88.62
2023-03-13T14:57:56.530Z,87.68
2023-03-13T15:00:44.066Z,88.62
2023-03-13T15:03:18.900Z,87.39
2023-03-13T15:05:40.362Z,85.53
2023-03-13T15:08:01.883Z,83.89
2023-03-13T15:10:30.022Z,81.61
2023-03-13T15:12:52.485Z,82.77
2023-03-13T15:15:13.974Z,82.54
2023-03-13T15:17:35.470Z,81.73
2023-03-13T15:19:58.706Z,81.19
2023-03-13T15:22:28.757Z,81.10
2023-03-13T15:25:04.925Z,80.78
2023-03-13T15:27:27.162Z,80.98
2023-03-13T15:29:48.771Z,81.43
2023-03-13T15:32:18.829Z,81.36
2023-03-13T15:34:40.328Z,81.55
2023-03-13T15:37:01.769Z,79.65
2023-03-13T15:39:24.802Z,81.91
2023-03-13T15:41:46.322Z,81.47
2023-03-13T15:44:07.796Z,80.63
2023-03-13T15:46:29.830Z,82.43
2023-03-13T15:48:51.624Z,83.50
2023-03-13T15:51:14.944Z,84.37
2023-03-13T15:53:36.563Z,85.48
2023-03-13T15:56:00.760Z,86.19
2023-03-13T15:58:23.137Z,87.66
2023-03-13T16:00:46.059Z,88.79
2023-03-13T16:03:15.197Z,90.53
2023-03-13T16:05:36.788Z,89.76
2023-03-13T16:07:58.461Z,88.84
2023-03-13T16:10:26.262Z,90.89
2023-03-13T16:12:47.731Z,96.62
2023-03-13T16:15:09.669Z,97.28
2023-03-13T16:17:32.140Z,97.70
2023-03-13T16:19:53.585Z,97.10
2023-03-13T16:22:15.317Z,97.34
2023-03-13T16:24:36.879Z,97.69
2023-03-13T16:26:58.344Z,100.00
2023-03-13T16:29:19.808Z,99.49
2023-03-13T16:31:41.890Z,100.00
2023-03-13T16:34:03.588Z,100.00
2023-03-13T16:36:28.613Z,100.00
2023-03-13T16:38:50.696Z,100.00
2023-03-13T16:41:21.034Z,100.00
2023-03-13T16:43:42.856Z,100.00
2023-03-13T16:46:11.818Z,100.00
2023-03-13T16:48:33.388Z,99.53
2023-03-13T16:50:54.959Z,100.00
2023-03-13T16:53:16.438Z,100.00
2023-03-13T16:55:37.944Z,100.00
2023-03-13T16:57:59.480Z,100.00
2023-03-13T17:00:23.082Z,100.00
2023-03-13T17:02:44.894Z,100.00
2023-03-13T17:05:06.549Z,100.00
2023-03-13T17:07:29.568Z,100.00
2023-03-13T17:09:51.879Z,100.00
2023-03-13T17:12:13.522Z,100.00
2023-03-13T17:14:35.023Z,100.00
2023-03-13T17:16:56.461Z,100.00
2023-03-13T17:19:18.483Z,100.00
2023-03-13T17:21:41.010Z,100.00
2023-03-13T17:24:02.901Z,100.00
2023-03-13T17:26:27.004Z,100.00
2023-03-13T17:28:50.375Z,100.00
2023-03-13T17:31:12.667Z,100.00
2023-03-13T17:33:34.152Z,100.00
2023-03-13T17:35:55.855Z,100.00
2023-03-13T17:38:17.395Z,100.00
2023-03-13T17:40:38.954Z,100.00
2023-03-13T17:43:00.717Z,100.00
2023-03-13T17:45:22.202Z,100.00
2023-03-13T17:47:44.600Z,100.00
2023-03-13T17:50:26.365Z,100.00
2023-03-13T17:52:47.979Z,100.00
2023-03-13T17:55:10.036Z,100.00
2023-03-13T17:57:31.515Z,100.00
2023-03-13T17:59:53.020Z,100.00
2023-03-13T18:02:15.991Z,100.00
2023-03-13T18:04:37.478Z,100.00
2023-03-13T18:06:58.963Z,99.75
2023-03-13T18:09:21.698Z,99.45
2023-03-13T18:11:43.412Z,97.81
2023-03-13T18:14:06.473Z,97.37
2023-03-13T18:16:37.617Z,97.89
2023-03-13T18:18:59.182Z,96.38
2023-03-13T18:21:24.539Z,96.06
2023-03-13T18:23:46.080Z,98.01
2023-03-13T18:26:20.970Z,97.93
2023-03-13T18:28:42.435Z,98.20
2023-03-13T18:31:04.059Z,98.96
2023-03-13T18:33:25.581Z,98.64
2023-03-13T18:35:47.131Z,98.37
2023-03-13T18:38:10.546Z,98.61
2023-03-13T18:40:32.055Z,98.83
2023-03-13T18:42:53.639Z,98.36
2023-03-13T18:45:17.405Z,98.92
2023-03-13T18:47:38.951Z,98.44
2023-03-13T18:50:00.624Z,97.63
2023-03-13T18:52:22.119Z,98.21
2023-03-13T18:54:44.834Z,97.24
2023-03-13T18:57:19.012Z,97.32
2023-03-13T18:59:40.683Z,97.72
2023-03-13T19:02:02.243Z,97.42
2023-03-13T19:04:23.814Z,96.73
2023-03-13T19:06:46.045Z,97.32
2023-03-13T19:09:40.998Z,96.61
2023-03-13T19:11:58.155Z,96.12
2023-03-13T19:14:19.687Z,95.37
2023-03-13T19:16:48.785Z,95.03
2023-03-13T19:19:21.267Z,94.69
2023-03-13T19:21:42.753Z,94.28
2023-03-13T19:24:04.594Z,94.10
2023-03-13T19:26:34.014Z,94.44
2023-03-13T19:28:55.749Z,94.42
2023-03-13T19:31:18.705Z,96.47
2023-03-13T19:33:40.320Z,96.61
2023-03-13T19:36:01.769Z,97.32
2023-03-13T19:38:23.278Z,98.24
2023-03-13T19:40:44.699Z,100.00
2023-03-13T19:43:06.177Z,100.00
2023-03-13T19:45:27.774Z,100.00
2023-03-13T19:47:49.776Z,100.00
2023-03-13T19:50:20.382Z,100.00
2023-03-13T19:52:41.825Z,100.00
2023-03-13T19:55:05.072Z,100.00
2023-03-13T19:57:26.750Z,100.00
2023-03-13T19:59:48.251Z,100.00
2023-03-13T20:02:11.441Z,100.00
2023-03-13T20:04:33.232Z,100.00
2023-03-13T20:06:54.690Z,100.00
2023-03-13T20:09:17.901Z,100.00
2023-03-13T20:11:39.555Z,100.00
2023-03-13T20:14:01.270Z,100.00
2023-03-13T20:16:25.587Z,100.00
2023-03-13T20:18:49.422Z,100.00
2023-03-13T20:21:11.207Z,100.00
2023-03-13T20:23:33.197Z,100.00
2023-03-13T20:25:54.816Z,100.00
2023-03-13T20:28:16.327Z,100.00
2023-03-13T20:30:44.610Z,100.00
2023-03-13T20:33:06.266Z,100.00
2023-03-13T20:35:28.152Z,99.99
2023-03-13T20:37:50.155Z,100.00
2023-03-13T20:40:12.266Z,97.96
2023-03-13T20:42:33.804Z,96.21
2023-03-13T20:44:55.984Z,97.17
2023-03-13T20:47:17.487Z,96.57
2023-03-13T20:49:41.090Z,95.65
2023-03-13T20:52:04.297Z,95.57
2023-03-13T20:54:25.890Z,93.66
2023-03-13T20:56:47.342Z,94.27
2023-03-13T20:59:08.823Z,92.04
2023-03-13T21:02:17.569Z,89.53
2023-03-13T21:04:39.044Z,87.68
2023-03-13T21:07:04.718Z,87.16
2023-03-13T21:09:26.242Z,87.21
2023-03-13T21:11:47.706Z,87.89
2023-03-13T21:14:09.233Z,86.74
2023-03-13T21:16:30.718Z,86.64
2023-03-13T21:18:52.339Z,85.95
2023-03-13T21:21:17.438Z,86.14
2023-03-13T21:23:39.053Z,87.03
2023-03-13T21:26:00.656Z,87.84
2023-03-13T21:28:22.234Z,88.58
2023-03-13T21:30:43.671Z,90.15
2023-03-13T21:33:05.124Z,89.45
2023-03-13T21:35:26.622Z,88.25
2023-03-13T21:37:48.130Z,87.18
2023-03-13T21:40:10.384Z,86.36
2023-03-13T21:42:32.118Z,86.74
2023-03-13T21:44:53.998Z,86.47
2023-03-13T21:47:24.483Z,85.75
2023-03-13T21:49:46.059Z,84.82
2023-03-13T21:52:07.484Z,84.50
2023-03-13T21:54:29.015Z,85.29
2023-03-13T21:56:50.646Z,85.74
2023-03-13T21:59:12.103Z,84.63
2023-03-13T22:01:33.562Z,84.42
2023-03-13T22:03:55.097Z,84.14
2023-03-13T22:06:19.705Z,83.82
2023-03-13T22:08:42.367Z,83.95
2023-03-13T22:11:03.934Z,83.41
2023-03-13T22:13:25.437Z,83.66
2023-03-13T22:15:47.195Z,83.36
2023-03-13T22:18:08.784Z,83.05
2023-03-13T22:20:30.201Z,83.42
2023-03-13T22:22:52.271Z,84.09
2023-03-13T22:25:13.715Z,84.42
2023-03-13T22:27:35.197Z,83.64
2023-03-13T22:29:57.122Z,84.54
2023-03-13T22:32:18.651Z,84.47
2023-03-13T22:34:44.952Z,85.36
2023-03-13T22:37:06.460Z,85.04
2023-03-13T22:39:27.978Z,85.13
2023-03-13T22:41:49.553Z,85.04
2023-03-13T22:44:11.020Z,84.12
2023-03-13T22:46:32.489Z,84.10
2023-03-13T22:48:53.999Z,85.19
2023-03-13T22:51:16.223Z,85.95
2023-03-13T22:53:39.595Z,86.71
2023-03-13T22:56:01.046Z,86.43
2023-03-13T22:58:23.118Z,84.19
2023-03-13T23:00:44.590Z,83.36
2023-03-13T23:03:06.186Z,84.34
2023-03-13T23:05:27.615Z,82.68
2023-03-13T23:07:50.859Z,83.26
2023-03-13T23:10:13.095Z,79.52
2023-03-13T23:12:34.547Z,79.57
2023-03-13T23:14:59.581Z,79.23
2023-03-13T23:17:21.044Z,77.66
2023-03-13T23:19:42.543Z,77.79
2023-03-13T23:22:04.016Z,77.96
2023-03-13T23:24:25.541Z,79.25
2023-03-13T23:26:46.985Z,82.20
2023-03-13T23:29:08.438Z,85.21
2023-03-13T23:31:29.880Z,86.69
2023-03-13T23:33:51.341Z,83.59
2023-03-13T23:36:15.686Z,82.97
2023-03-13T23:38:37.180Z,84.78
2023-03-13T23:40:58.639Z,84.97
2023-03-13T23:43:20.142Z,85.26
2023-03-13T23:45:41.585Z,84.95
2023-03-13T23:48:03.099Z,84.12
2023-03-13T23:50:24.632Z,84.61
2023-03-13T23:52:46.102Z,83.88
2023-03-13T23:55:08.303Z,84.80
2023-03-13T23:57:30.280Z,84.20
2023-03-13T23:59:51.776Z,85.39
